createdAt,value
2017-05-16T09:58:00.382Z,2765
2017-05-16T09:58:40.885Z,2745
2017-05-16T09:59:21.409Z,2700
2017-05-16T10:00:02.650Z,2600
2017-05-16T10:00:43.117Z,2695
2017-05-16T10:01:24.439Z,3000
2017-05-16T10:02:04.948Z,3225
2017-05-16T10:02:45.460Z,3210
2017-05-16T10:03:25.944Z,3060
2017-05-16T10:04:06.439Z,2725
2017-05-16T10:04:46.945Z,2470
2017-05-16T10:05:27.444Z,2360
2017-05-16T10:06:07.904Z,2320
2017-05-16T10:06:48.434Z,2330
2017-05-16T10:07:28.895Z,2210
2017-05-16T10:08:09.345Z,2135
2017-05-16T10:08:49.795Z,2025
2017-05-16T10:09:30.294Z,1845
2017-05-16T10:10:10.760Z,1695
2017-05-16T10:10:51.299Z,1565
2017-05-16T10:11:31.772Z,1490
2017-05-16T10:14:04.834Z,1210
2017-05-16T10:14:45.323Z,1205
2017-05-16T10:15:25.823Z,1200
2017-05-16T10:16:06.320Z,1185
2017-05-16T10:16:46.808Z,1140
2017-05-16T10:17:27.296Z,1045
2017-05-16T10:18:07.811Z,845
2017-05-16T10:18:48.303Z,610
2017-05-16T10:19:28.818Z,485
2017-05-16T10:20:09.277Z,435
2017-05-16T10:20:49.760Z,405
2017-05-16T10:21:30.251Z,390
2017-05-16T10:22:10.832Z,385
2017-05-16T10:22:51.294Z,380
2017-05-16T10:23:31.824Z,375
2017-05-16T10:24:12.289Z,370
2017-05-16T10:24:52.779Z,365
2017-05-16T10:25:33.375Z,365
2017-05-16T10:26:13.835Z,360
2017-05-16T10:26:54.321Z,355
2017-05-16T10:27:34.778Z,350
2017-05-16T10:28:15.269Z,345
2017-05-16T10:28:55.766Z,340
2017-05-16T10:29:36.289Z,335
2017-05-16T10:30:16.794Z,330
2017-05-16T10:30:57.898Z,335
2017-05-16T10:31:38.427Z,340
2017-05-16T10:34:07.020Z,400
2017-05-16T10:34:47.515Z,435
2017-05-16T10:37:15.454Z,2615
2017-05-16T10:37:55.945Z,2240
2017-05-16T10:38:36.439Z,1300
2017-05-16T10:39:16.940Z,500
2017-05-16T10:39:57.445Z,385
2017-05-16T10:40:38.042Z,390
2017-05-16T10:41:19.057Z,420
2017-05-16T10:41:59.533Z,510
2017-05-16T10:44:32.587Z,3765
2017-05-16T10:45:13.121Z,3825
2017-05-16T10:45:53.630Z,3835
2017-05-16T10:46:34.127Z,3865
2017-05-16T10:47:14.635Z,3830
2017-05-16T10:47:55.134Z,3810
2017-05-16T10:48:35.647Z,3660
2017-05-16T10:49:16.187Z,3840
2017-05-16T10:49:56.638Z,3775
2017-05-16T10:50:37.983Z,3685
2017-05-16T10:51:18.482Z,3370
2017-05-16T10:51:59.005Z,3350
2017-05-16T10:52:39.495Z,3515
2017-05-16T10:53:19.981Z,3590
2017-05-16T10:54:00.586Z,3585
2017-05-16T10:54:41.081Z,3610
2017-05-16T10:55:21.570Z,3555
2017-05-16T10:56:02.069Z,3580
2017-05-16T10:56:42.580Z,3815
2017-05-16T10:57:23.023Z,3805
2017-05-16T10:59:35.773Z,3720
2017-05-16T11:00:16.258Z,3725
2017-05-16T11:00:56.730Z,3810
2017-05-16T11:01:37.222Z,3730
2017-05-16T11:02:17.726Z,3805
2017-05-16T11:02:58.237Z,3705
2017-05-16T11:03:39.676Z,3990
2017-05-16T11:04:20.201Z,4185
2017-05-16T11:05:00.696Z,4070
2017-05-16T11:05:41.190Z,4015
2017-05-16T11:06:21.698Z,3885
2017-05-16T11:07:02.211Z,3850
2017-05-16T11:07:42.740Z,3790
2017-05-16T11:08:23.228Z,3630
2017-05-16T11:09:03.699Z,3555
2017-05-16T11:09:44.229Z,3550
2017-05-16T11:10:24.711Z,3715
2017-05-16T11:11:05.194Z,3770
2017-05-16T11:11:45.723Z,3765
2017-05-16T11:14:24.678Z,3665
2017-05-16T11:15:05.192Z,3610
2017-05-16T11:15:45.738Z,3615
2017-05-16T11:16:26.214Z,3580
2017-05-16T11:17:08.531Z,3485
2017-05-16T11:17:49.045Z,3405
2017-05-16T11:18:29.588Z,3485
2017-05-16T11:19:10.707Z,3490
2017-05-16T11:19:52.051Z,3475
2017-05-16T11:20:32.510Z,3475
2017-05-16T11:21:13.026Z,3545
2017-05-16T11:21:53.532Z,3690
2017-05-16T11:22:34.020Z,3855
2017-05-16T11:23:14.556Z,3860
2017-05-16T11:23:55.086Z,3855
2017-05-16T11:24:35.631Z,3800
2017-05-16T11:25:16.153Z,3530
2017-05-16T11:25:56.657Z,3255
2017-05-16T11:26:37.750Z,3240
2017-05-16T11:27:18.276Z,3475
2017-05-16T11:27:58.852Z,3450
2017-05-16T11:28:39.324Z,3375
2017-05-16T11:29:19.839Z,3355
2017-05-16T11:30:00.364Z,3420
2017-05-16T11:30:40.937Z,3355
2017-05-16T11:33:13.970Z,3130
2017-05-16T11:33:54.487Z,3555
2017-05-16T11:34:34.963Z,3980
2017-05-16T11:35:15.466Z,4035
2017-05-16T11:35:56.884Z,3905
2017-05-16T11:36:37.378Z,3930
2017-05-16T11:37:17.890Z,3865
2017-05-16T11:37:58.410Z,3865
2017-05-16T11:38:38.902Z,3775
2017-05-16T11:39:19.418Z,3695
2017-05-16T11:41:52.497Z,3425
2017-05-16T11:42:33.055Z,2990
2017-05-16T11:43:13.582Z,2120
2017-05-16T11:43:54.094Z,1135
2017-05-16T11:44:34.578Z,800
2017-05-16T11:45:15.105Z,730
2017-05-16T11:45:55.585Z,690
2017-05-16T11:46:36.109Z,665
2017-05-16T11:47:17.464Z,635
2017-05-16T11:47:57.975Z,615
2017-05-16T11:48:38.448Z,610
2017-05-16T11:49:19.020Z,595
2017-05-16T11:49:59.522Z,595
2017-05-16T11:50:40.029Z,585
2017-05-16T11:51:20.526Z,580
2017-05-16T11:52:01.002Z,570
2017-05-16T11:52:41.509Z,575
2017-05-16T11:53:21.997Z,565
2017-05-16T11:54:02.518Z,560
2017-05-16T11:54:43.835Z,565
2017-05-16T11:55:24.332Z,560
2017-05-16T11:56:04.835Z,550
2017-05-16T11:56:45.377Z,550
2017-05-16T11:57:25.823Z,545
2017-05-16T11:58:06.330Z,545
2017-05-16T11:58:46.815Z,540
2017-05-16T12:01:19.972Z,535
2017-05-16T12:02:00.479Z,535
2017-05-16T12:02:41.038Z,530
2017-05-16T12:03:21.644Z,535
2017-05-16T12:04:03.024Z,535
2017-05-16T12:04:43.603Z,535
2017-05-16T12:05:24.120Z,540
2017-05-16T12:06:05.632Z,535
2017-05-16T12:06:46.103Z,535
2017-05-16T12:09:03.952Z,545
2017-05-16T12:09:44.447Z,545
2017-05-16T12:10:24.965Z,555
2017-05-16T12:11:05.490Z,560
2017-05-16T12:11:45.988Z,580
2017-05-16T12:12:26.485Z,595
2017-05-16T12:13:07.849Z,610
2017-05-16T12:13:48.327Z,645
2017-05-16T12:16:26.553Z,3115
2017-05-16T12:17:07.052Z,3435
2017-05-16T12:17:47.698Z,3350
2017-05-16T12:18:28.197Z,3395
2017-05-16T12:19:09.695Z,3530
2017-05-16T12:19:50.210Z,3525
2017-05-16T12:20:30.732Z,3555
2017-05-16T12:21:11.198Z,3590
2017-05-16T12:23:49.401Z,3565
2017-05-16T12:24:29.888Z,3565
2017-05-16T12:25:10.391Z,3575
2017-05-16T12:25:50.956Z,3670
2017-05-16T12:26:31.458Z,3655
2017-05-16T12:27:11.979Z,3675
2017-05-16T12:27:52.610Z,3745
2017-05-16T12:28:33.104Z,3840
2017-05-16T12:29:13.643Z,3815
2017-05-16T12:29:54.162Z,3715
2017-05-16T12:30:34.645Z,3645
2017-05-16T12:31:15.137Z,3605
2017-05-16T12:31:56.153Z,3645
2017-05-16T12:32:36.885Z,3655
2017-05-16T12:33:18.097Z,3665
2017-05-16T12:33:58.665Z,3680
2017-05-16T12:34:39.177Z,3710
2017-05-16T12:35:19.692Z,3685
2017-05-16T12:36:01.075Z,3640
2017-05-16T12:36:41.578Z,3650
2017-05-16T12:37:22.076Z,3615
2017-05-16T12:38:02.593Z,3735
2017-05-16T12:38:43.719Z,3740
2017-05-16T12:39:24.214Z,3810
2017-05-16T12:40:04.705Z,3775
2017-05-16T12:40:45.194Z,3745
2017-05-16T12:41:26.680Z,3670
2017-05-16T12:42:07.146Z,3605
2017-05-16T12:44:35.275Z,3650
2017-05-16T12:45:15.814Z,3610
2017-05-16T12:45:56.503Z,3620
2017-05-16T12:46:37.154Z,3610
2017-05-16T12:47:17.642Z,3625
2017-05-16T12:47:58.282Z,3600
2017-05-16T12:48:38.766Z,3535
2017-05-16T12:49:19.376Z,3465
2017-05-16T12:49:59.944Z,3325
2017-05-16T12:52:29.435Z,3540
2017-05-16T12:53:09.915Z,3505
2017-05-16T12:53:50.355Z,3520
2017-05-16T12:54:30.874Z,3540
2017-05-16T12:55:11.397Z,3585
2017-05-16T12:55:51.866Z,3580
2017-05-16T12:58:30.315Z,3570
2017-05-16T12:59:10.910Z,3530
2017-05-16T12:59:51.668Z,3385
2017-05-16T13:00:32.317Z,3315
2017-05-16T13:01:13.296Z,3390
2017-05-16T13:03:41.197Z,3445
2017-05-16T13:04:22.483Z,3395
2017-05-16T13:05:02.971Z,3370
2017-05-16T13:05:44.431Z,3345
2017-05-16T13:06:24.949Z,3345
2017-05-16T13:07:05.469Z,3330
2017-05-16T13:07:46.027Z,3315
2017-05-16T13:08:26.527Z,3330
2017-05-16T13:09:07.008Z,3110
2017-05-16T13:09:47.500Z,2590
2017-05-16T13:10:27.989Z,1835
2017-05-16T13:11:08.493Z,1350
2017-05-16T13:11:48.981Z,795
2017-05-16T13:12:29.474Z,605
2017-05-16T13:13:09.951Z,580
2017-05-16T13:13:50.467Z,565
2017-05-16T13:14:30.957Z,555
2017-05-16T13:15:11.462Z,555
2017-05-16T13:15:51.956Z,555
2017-05-16T13:16:32.491Z,555
2017-05-16T13:17:12.986Z,560
2017-05-16T13:17:53.480Z,570
2017-05-16T13:18:33.999Z,595
2017-05-16T13:19:14.472Z,645
2017-05-16T13:19:54.954Z,925
2017-05-16T13:20:36.334Z,1565
2017-05-16T13:21:17.647Z,2275
2017-05-16T13:21:58.164Z,2875
2017-05-16T13:22:38.658Z,3195
2017-05-16T13:23:19.137Z,3210
2017-05-16T13:24:00.122Z,3150
2017-05-16T13:24:40.760Z,3140
2017-05-16T13:25:21.288Z,3120
2017-05-16T13:26:01.726Z,3165
2017-05-16T13:26:42.193Z,3245
2017-05-16T13:27:22.696Z,3275
2017-05-16T13:28:03.176Z,3405
2017-05-16T13:28:43.663Z,3470
2017-05-16T13:29:24.130Z,3495
2017-05-16T13:30:04.632Z,3570
2017-05-16T13:30:47.048Z,3665
2017-05-16T13:31:27.505Z,3675
2017-05-16T13:32:08.023Z,3620
2017-05-16T13:32:49.039Z,3600
2017-05-16T13:33:29.549Z,3525
2017-05-16T13:35:57.612Z,3695
2017-05-16T13:36:38.011Z,3645
2017-05-16T13:37:18.508Z,3545
2017-05-16T13:39:52.347Z,3480
2017-05-16T13:40:32.839Z,3570
2017-05-16T13:41:13.329Z,3760
2017-05-16T13:41:53.846Z,4075
2017-05-16T13:42:34.286Z,4215
2017-05-16T13:43:14.741Z,4135
2017-05-16T13:43:55.240Z,3910
2017-05-16T13:46:07.993Z,3435
2017-05-16T13:46:48.501Z,3250
2017-05-16T13:47:29.066Z,2980
2017-05-16T13:48:09.571Z,2695
2017-05-16T13:48:50.056Z,2420
2017-05-16T13:49:32.222Z,2080
2017-05-16T13:50:12.701Z,1770
2017-05-16T13:50:53.198Z,1555
2017-05-16T13:51:33.710Z,1455
2017-05-16T13:53:51.601Z,1430
2017-05-16T13:54:32.152Z,1385
2017-05-16T13:55:12.928Z,1370
2017-05-16T13:57:41.240Z,1490
2017-05-16T13:58:21.884Z,1545
2017-05-16T13:59:02.360Z,1545
2017-05-16T13:59:42.796Z,1555
2017-05-16T14:00:23.294Z,1685
2017-05-16T14:01:03.924Z,1780
2017-05-16T14:01:45.125Z,1805
2017-05-16T14:02:26.204Z,1930
2017-05-16T14:03:06.675Z,2085
2017-05-16T14:05:34.653Z,2640
2017-05-16T14:06:15.177Z,2720
2017-05-16T14:08:44.031Z,2295
2017-05-16T14:09:24.590Z,2235
2017-05-16T14:10:05.707Z,2160
2017-05-16T14:10:46.219Z,2080
2017-05-16T14:11:26.743Z,2010
2017-05-16T14:12:07.262Z,1915
2017-05-16T14:12:47.789Z,1900
2017-05-16T14:13:28.367Z,1945
2017-05-16T14:14:08.758Z,1945
2017-05-16T14:14:49.265Z,2060
2017-05-16T14:15:29.796Z,2125
2017-05-16T14:16:10.333Z,2060
2017-05-16T14:16:50.858Z,1900
2017-05-16T14:17:31.381Z,1795
2017-05-16T14:18:12.698Z,1720
2017-05-16T14:18:53.221Z,1805
2017-05-16T14:19:33.711Z,1950
2017-05-16T14:20:14.218Z,2030
2017-05-16T14:20:55.360Z,1820
2017-05-16T14:23:28.428Z,765
2017-05-16T14:24:08.978Z,665
2017-05-16T14:24:49.433Z,605
2017-05-16T14:25:30.692Z,565
2017-05-16T14:26:11.191Z,545
2017-05-16T14:26:51.678Z,535
2017-05-16T14:27:32.181Z,530
2017-05-16T14:28:12.677Z,530
2017-05-16T14:28:53.170Z,515
2017-05-16T14:29:33.654Z,515
2017-05-16T14:30:14.212Z,510
2017-05-16T14:30:54.734Z,515
2017-05-16T14:31:36.078Z,520
2017-05-16T14:32:16.580Z,525
2017-05-16T14:32:57.138Z,570
2017-05-16T14:33:37.619Z,870
2017-05-16T14:34:18.810Z,1155
2017-05-16T14:34:59.295Z,1510
2017-05-16T14:35:39.753Z,1885
2017-05-16T14:36:20.253Z,2225
2017-05-16T14:38:48.356Z,2660
2017-05-16T14:39:28.806Z,2735
2017-05-16T14:40:09.318Z,2745
2017-05-16T14:40:49.813Z,2590
2017-05-16T14:41:30.315Z,2390
2017-05-16T14:42:11.678Z,2455
2017-05-16T14:42:52.198Z,2765
2017-05-16T14:43:32.827Z,3005
2017-05-16T14:44:13.351Z,2905
2017-05-16T14:44:53.952Z,2705
2017-05-16T14:45:35.174Z,2620
2017-05-16T14:46:16.258Z,2510
2017-05-16T14:46:57.480Z,2585
2017-05-16T14:47:37.949Z,2705
2017-05-16T14:48:18.423Z,3010
2017-05-16T14:48:58.915Z,3420
2017-05-16T14:49:39.405Z,4740
2017-05-16T14:51:57.284Z,2320
2017-05-16T14:52:38.750Z,1255
2017-05-16T14:53:19.239Z,1020
2017-05-16T14:53:59.758Z,905
2017-05-16T14:54:40.298Z,800
2017-05-16T14:55:20.795Z,740
2017-05-16T14:56:01.311Z,715
2017-05-16T14:56:41.806Z,690
2017-05-16T14:57:22.327Z,665
2017-05-16T14:58:02.886Z,640
2017-05-16T14:58:43.360Z,615
2017-05-16T14:59:23.861Z,580
2017-05-16T15:00:04.404Z,555
2017-05-16T15:00:44.867Z,535
2017-05-16T15:01:25.369Z,515
2017-05-16T15:02:05.832Z,495
2017-05-16T15:02:47.247Z,475
2017-05-16T15:03:27.760Z,460
2017-05-16T15:04:09.164Z,435
2017-05-16T15:04:49.687Z,415
2017-05-16T15:05:30.160Z,395
2017-05-16T15:07:43.007Z,355
2017-05-16T15:08:23.507Z,350
2017-05-16T15:09:04.022Z,345
2017-05-16T15:09:44.507Z,345
2017-05-16T15:10:25.003Z,345
2017-05-16T15:11:06.416Z,345
2017-05-16T15:11:46.855Z,345
2017-05-16T15:12:27.344Z,350
2017-05-16T15:13:07.861Z,350
2017-05-16T15:13:48.377Z,355
2017-05-16T15:14:28.866Z,360
2017-05-16T15:15:09.411Z,370
2017-05-16T15:15:49.888Z,375
2017-05-16T15:16:30.427Z,375
2017-05-16T15:17:11.731Z,380
2017-05-16T15:17:52.236Z,385
2017-05-16T15:18:32.743Z,385
2017-05-16T15:19:13.233Z,385
2017-05-16T15:19:54.215Z,385
2017-05-16T15:20:34.709Z,385
2017-05-16T15:21:15.200Z,385
2017-05-16T15:21:55.720Z,395
2017-05-16T15:22:36.917Z,405
2017-05-16T15:23:17.435Z,415
2017-05-16T15:23:57.945Z,435
2017-05-16T15:24:38.455Z,445
2017-05-16T15:25:18.939Z,455
2017-05-16T15:25:59.448Z,460
2017-05-16T15:26:39.968Z,465
2017-05-16T15:27:20.401Z,465
2017-05-16T15:28:00.906Z,465
2017-05-16T15:28:41.403Z,465
2017-05-16T15:29:21.896Z,465
2017-05-16T15:30:02.359Z,460
2017-05-16T15:30:42.815Z,460
2017-05-16T15:32:55.551Z,450
2017-05-16T15:33:36.029Z,445
2017-05-16T15:34:17.468Z,445
2017-05-16T15:34:57.889Z,440
2017-05-16T15:37:36.065Z,430
2017-05-16T15:38:16.594Z,430
2017-05-16T15:38:57.103Z,425
2017-05-16T15:39:37.595Z,425
2017-05-16T15:40:18.086Z,420
2017-05-16T15:40:58.584Z,415
2017-05-16T15:41:39.414Z,410
2017-05-16T15:42:20.168Z,405
2017-05-16T15:43:01.491Z,405
2017-05-16T15:43:41.930Z,400
2017-05-16T15:44:22.399Z,385
2017-05-16T15:45:02.841Z,335
2017-05-16T15:45:43.289Z,365
2017-05-16T15:46:24.569Z,350
2017-05-16T15:47:05.621Z,315
2017-05-16T15:47:46.079Z,340
2017-05-16T15:48:26.533Z,350
2017-05-16T15:51:04.621Z,365
2017-05-16T15:51:45.111Z,360
2017-05-16T15:52:25.630Z,355
2017-05-16T15:53:06.109Z,355
2017-05-16T15:53:46.591Z,350
2017-05-16T15:54:27.102Z,345
2017-05-16T15:57:05.332Z,340
2017-05-16T15:57:45.878Z,335
2017-05-16T15:58:26.317Z,335
2017-05-16T15:59:06.844Z,330
2017-05-16T15:59:47.342Z,325
2017-05-16T16:00:27.839Z,325
2017-05-16T16:01:08.325Z,320
2017-05-16T16:01:48.838Z,315
2017-05-16T16:02:29.350Z,315
2017-05-16T16:03:09.841Z,310
2017-05-16T16:03:50.354Z,305
2017-05-16T16:04:30.889Z,300
2017-05-16T16:05:11.414Z,300
2017-05-16T16:05:51.949Z,295
2017-05-16T16:06:32.472Z,290
2017-05-16T16:07:13.065Z,285
2017-05-16T16:07:53.649Z,285
2017-05-16T16:08:34.216Z,280
2017-05-16T16:10:52.059Z,275
2017-05-16T16:11:32.563Z,270
2017-05-16T16:12:13.039Z,270
2017-05-16T16:12:53.536Z,265
2017-05-16T16:13:33.971Z,260
2017-05-16T16:14:14.452Z,260
2017-05-16T16:14:54.922Z,255
2017-05-16T16:15:35.381Z,255
2017-05-16T16:16:15.890Z,250
2017-05-16T16:16:56.357Z,250
2017-05-16T16:19:14.267Z,240
2017-05-16T16:19:54.758Z,240
2017-05-16T16:20:35.222Z,240
2017-05-16T16:21:15.717Z,235
2017-05-16T16:21:56.224Z,235
2017-05-16T16:22:36.722Z,230
2017-05-16T16:23:17.895Z,230
2017-05-16T16:23:58.419Z,230
2017-05-16T16:24:38.977Z,235
2017-05-16T16:25:19.511Z,230
2017-05-16T16:26:00.063Z,225
2017-05-16T16:26:41.516Z,225
2017-05-16T16:27:22.005Z,230
2017-05-16T16:28:02.493Z,220
2017-05-16T16:28:43.026Z,220
2017-05-16T16:29:24.265Z,220
2017-05-16T16:30:04.757Z,220
2017-05-16T16:30:45.250Z,215
2017-05-16T16:31:25.766Z,215
2017-05-16T16:32:06.271Z,215
2017-05-16T16:32:46.750Z,215
2017-05-16T16:33:27.265Z,215
2017-05-16T16:34:07.762Z,210
2017-05-16T16:34:48.261Z,210
2017-05-16T16:35:29.605Z,210
2017-05-16T16:36:10.106Z,210
2017-05-16T16:36:50.642Z,215
2017-05-16T16:37:31.145Z,210
2017-05-16T16:38:12.194Z,205
2017-05-16T16:38:52.694Z,205
2017-05-16T16:39:33.189Z,205
2017-05-16T16:40:13.681Z,205
2017-05-16T16:40:54.174Z,205
2017-05-16T16:41:34.674Z,200
2017-05-16T16:42:15.172Z,200
2017-05-16T16:42:55.636Z,200
2017-05-16T16:43:36.141Z,200
2017-05-16T16:44:16.624Z,200
2017-05-16T16:44:57.132Z,200
2017-05-16T16:45:37.601Z,200
2017-05-16T16:46:18.114Z,195
2017-05-16T16:46:58.603Z,195
2017-05-16T16:47:39.105Z,195
2017-05-16T16:48:19.604Z,195
2017-05-16T16:50:37.442Z,195
2017-05-16T16:51:17.939Z,190
2017-05-16T16:51:58.442Z,190
2017-05-16T16:52:38.920Z,190
2017-05-16T16:53:19.405Z,190
2017-05-16T16:53:59.902Z,185
2017-05-16T16:54:40.409Z,185
2017-05-16T16:55:21.830Z,185
2017-05-16T16:56:02.345Z,185
2017-05-16T16:56:42.820Z,180
2017-05-16T16:57:23.294Z,180
2017-05-16T16:58:03.756Z,180
2017-05-16T16:58:44.206Z,180
2017-05-16T16:59:24.732Z,180
2017-05-16T17:00:05.217Z,175
2017-05-16T17:00:45.709Z,175
2017-05-16T17:01:26.210Z,175
2017-05-16T17:02:06.712Z,170
2017-05-16T17:02:47.202Z,170
2017-05-16T17:03:27.707Z,170
2017-05-16T17:04:08.180Z,170
2017-05-16T17:04:48.650Z,165
2017-05-16T17:05:29.100Z,165
2017-05-16T17:06:09.547Z,165
2017-05-16T17:08:37.527Z,115
2017-05-16T17:09:18.050Z,110
2017-05-16T17:09:58.552Z,105
2017-05-16T17:10:39.026Z,105
2017-05-16T17:11:19.520Z,100
2017-05-16T17:12:00.041Z,100
2017-05-16T17:12:40.504Z,95
2017-05-16T17:13:20.993Z,95
2017-05-16T17:14:01.479Z,95
2017-05-16T17:14:41.944Z,95
2017-05-16T17:16:54.726Z,95
2017-05-16T17:17:35.203Z,90
2017-05-16T17:18:15.668Z,90
2017-05-16T17:20:49.270Z,90
2017-05-16T17:21:29.758Z,90
2017-05-16T17:22:10.247Z,90
2017-05-16T17:22:50.826Z,85
2017-05-16T17:23:31.323Z,85
2017-05-16T17:24:11.807Z,85
2017-05-16T17:24:52.306Z,85
2017-05-16T17:25:32.793Z,85
2017-05-16T17:26:13.278Z,85
2017-05-16T17:26:53.774Z,85
2017-05-16T17:27:34.288Z,85
2017-05-16T17:28:14.843Z,85
2017-05-16T17:28:55.277Z,80
2017-05-16T17:29:37.464Z,80
2017-05-16T17:30:17.968Z,80
2017-05-16T17:30:58.457Z,80
2017-05-16T17:31:38.950Z,80
2017-05-16T17:32:19.481Z,80
2017-05-16T17:32:59.965Z,80
2017-05-16T17:33:40.451Z,75
2017-05-16T17:34:21.910Z,75
2017-05-16T17:35:02.411Z,75
2017-05-16T17:35:42.903Z,75
2017-05-16T17:36:23.406Z,75
2017-05-16T17:37:03.923Z,75
2017-05-16T17:37:44.418Z,75
2017-05-16T17:38:24.903Z,75
2017-05-16T17:39:05.394Z,75
2017-05-16T17:41:43.511Z,70
2017-05-16T17:42:24.013Z,70
2017-05-16T17:43:04.507Z,70
2017-05-16T17:43:44.995Z,70
2017-05-16T17:44:25.501Z,70
2017-05-16T17:45:06.003Z,70
2017-05-16T17:45:46.523Z,70
2017-05-16T17:46:27.018Z,65
2017-05-16T17:47:07.510Z,65
2017-05-16T17:47:48.018Z,65
2017-05-16T17:48:28.506Z,65
2017-05-16T17:49:08.990Z,65
2017-05-16T17:49:49.479Z,65
2017-05-16T17:50:29.970Z,65
2017-05-16T17:51:10.452Z,65
2017-05-16T17:51:51.713Z,65
2017-05-16T17:52:32.210Z,60
2017-05-16T17:53:12.700Z,60
2017-05-16T17:53:53.166Z,60
2017-05-16T17:54:34.584Z,60
2017-05-16T17:55:15.089Z,60
2017-05-16T17:55:55.575Z,60
2017-05-16T17:56:36.079Z,60
2017-05-16T17:57:16.524Z,60
2017-05-16T17:57:57.012Z,60
2017-05-16T17:58:38.502Z,60
2017-05-16T17:59:19.003Z,55
2017-05-16T17:59:59.506Z,55
2017-05-16T18:00:40.007Z,55
2017-05-16T18:01:20.572Z,55
2017-05-16T18:02:02.716Z,55
2017-05-16T18:02:43.209Z,55
2017-05-16T18:03:23.770Z,55
2017-05-16T18:04:04.322Z,55
2017-05-16T18:04:44.814Z,55
2017-05-16T18:05:25.274Z,55
2017-05-16T18:06:05.732Z,50
2017-05-16T18:06:46.230Z,50
2017-05-16T18:07:27.593Z,50
2017-05-16T18:08:08.096Z,50
2017-05-16T18:08:48.604Z,50
2017-05-16T18:09:29.102Z,50
2017-05-16T18:10:09.600Z,50
2017-05-16T18:10:50.104Z,50
2017-05-16T18:11:30.609Z,50
2017-05-16T18:12:11.043Z,50
2017-05-16T18:12:51.544Z,45
2017-05-16T18:15:30.512Z,45
2017-05-16T18:16:11.011Z,45
2017-05-16T18:16:51.521Z,45
2017-05-16T18:17:32.005Z,45
2017-05-16T18:18:12.515Z,45
2017-05-16T18:18:53.007Z,40
2017-05-16T18:19:33.501Z,40
2017-05-16T18:20:14.514Z,40
2017-05-16T18:20:55.014Z,40
2017-05-16T18:21:36.120Z,40
2017-05-16T18:22:16.724Z,40
2017-05-16T18:22:57.218Z,40
2017-05-16T18:23:37.707Z,40
2017-05-16T18:24:18.184Z,40
2017-05-16T18:24:58.675Z,35
2017-05-16T18:25:39.165Z,35
2017-05-16T18:26:19.658Z,35
2017-05-16T18:27:00.137Z,35
2017-05-16T18:27:40.629Z,35
2017-05-16T18:28:21.139Z,35
2017-05-16T18:29:01.659Z,35
2017-05-16T18:29:42.081Z,35
2017-05-16T18:30:22.591Z,30
2017-05-16T18:31:03.080Z,30
2017-05-16T18:31:43.595Z,30
2017-05-16T18:32:24.082Z,30
2017-05-16T18:33:04.604Z,30
2017-05-16T18:33:45.085Z,30
2017-05-16T18:34:25.573Z,30
2017-05-16T18:35:06.063Z,30
2017-05-16T18:35:46.602Z,25
2017-05-16T18:36:27.073Z,25
2017-05-16T18:37:07.571Z,25
2017-05-16T18:37:48.080Z,25
2017-05-16T18:38:28.560Z,25
2017-05-16T18:39:09.047Z,25
2017-05-16T18:39:49.576Z,25
2017-05-16T18:40:30.147Z,25
2017-05-16T18:41:10.685Z,20
2017-05-16T18:43:28.490Z,20
2017-05-16T18:44:08.992Z,20
2017-05-16T18:44:49.471Z,20
2017-05-16T18:45:30.957Z,20
2017-05-16T18:46:11.453Z,20
2017-05-16T18:46:51.941Z,15
2017-05-16T18:47:32.430Z,15
2017-05-16T18:48:12.930Z,15
2017-05-16T18:48:53.430Z,15
2017-05-16T18:49:33.897Z,15
2017-05-16T18:50:14.459Z,15
2017-05-16T18:50:54.910Z,15
2017-05-16T18:51:35.420Z,15
2017-05-16T18:52:15.911Z,15
2017-05-16T18:52:56.394Z,10
2017-05-16T18:53:36.912Z,10
2017-05-16T18:54:17.398Z,10
2017-05-16T18:54:57.951Z,10
2017-05-16T18:55:38.452Z,10
2017-05-16T18:56:18.941Z,10
2017-05-16T18:56:59.463Z,10
2017-05-16T18:57:39.906Z,10
2017-05-16T18:58:20.401Z,10
2017-05-16T18:59:01.455Z,5
2017-05-16T18:59:42.457Z,5
2017-05-16T19:00:23.871Z,5
2017-05-16T19:03:01.971Z,5
2017-05-16T19:03:42.483Z,5
2017-05-16T19:04:22.964Z,5
2017-05-16T19:05:03.541Z,5
2017-05-16T19:05:44.060Z,5
2017-05-16T19:06:25.055Z,5
2017-05-16T19:07:05.538Z,5
2017-05-16T19:07:46.772Z,0
2017-05-16T19:08:27.985Z,0
2017-05-16T19:09:08.463Z,0
2017-05-16T19:09:49.497Z,0
2017-05-16T19:10:29.995Z,0
2017-05-16T19:11:10.496Z,0
2017-05-16T19:11:51.787Z,0
2017-05-16T19:12:33.219Z,0
2017-05-16T19:13:13.698Z,0
2017-05-16T19:13:54.696Z,0
2017-05-16T19:14:35.194Z,0
2017-05-16T19:15:16.601Z,0
2017-05-16T19:15:57.110Z,0
2017-05-16T19:16:37.575Z,0
2017-05-16T19:17:18.086Z,0
2017-05-16T19:17:58.619Z,0
2017-05-16T19:18:39.076Z,0
2017-05-16T19:19:20.485Z,0
2017-05-16T19:20:00.974Z,0
2017-05-16T19:22:28.982Z,0
2017-05-16T19:23:09.461Z,0
2017-05-16T19:23:49.902Z,0
2017-05-16T19:24:30.360Z,0
2017-05-16T19:25:10.909Z,0
2017-05-16T19:25:51.356Z,0
2017-05-16T19:26:31.826Z,0
2017-05-16T19:27:12.259Z,0
2017-05-16T19:27:52.751Z,0
2017-05-16T19:28:33.246Z,0
2017-05-16T19:30:47.050Z,0
2017-05-16T19:31:27.557Z,0
2017-05-16T19:32:08.065Z,0
2017-05-16T19:32:48.561Z,0
2017-05-16T19:33:29.053Z,0
2017-05-16T19:34:09.566Z,0
2017-05-16T19:34:50.051Z,0
2017-05-16T19:35:30.623Z,0
2017-05-16T19:36:11.114Z,0
2017-05-16T19:36:52.567Z,0
2017-05-16T19:37:33.057Z,0
2017-05-16T19:38:13.556Z,0
2017-05-16T19:38:54.076Z,0
2017-05-16T19:39:34.588Z,0
2017-05-16T19:40:15.077Z,0
2017-05-16T19:40:55.572Z,0
2017-05-16T19:41:36.038Z,0
2017-05-16T19:42:16.532Z,0
2017-05-16T19:42:57.015Z,0
2017-05-16T19:43:37.518Z,0
2017-05-16T19:44:17.994Z,0
2017-05-16T19:44:58.484Z,0
2017-05-16T19:45:38.984Z,0
2017-05-16T19:46:19.518Z,0
2017-05-16T19:47:00.690Z,0
2017-05-16T19:47:41.206Z,0
2017-05-16T19:48:21.732Z,0
2017-05-16T19:49:03.987Z,0
2017-05-16T19:49:44.500Z,0
2017-05-16T19:50:25.074Z,0
2017-05-16T19:51:05.548Z,0
2017-05-16T19:51:46.075Z,0
2017-05-16T19:54:24.987Z,0
2017-05-16T19:55:05.491Z,0
2017-05-16T19:55:45.982Z,0
2017-05-16T19:56:26.434Z,0
2017-05-16T19:57:06.895Z,0
2017-05-16T19:57:47.357Z,0
2017-05-16T19:58:27.865Z,0
2017-05-16T19:59:08.315Z,0
2017-05-16T19:59:48.805Z,0
2017-05-16T20:00:29.279Z,0
2017-05-16T20:01:09.741Z,0
2017-05-16T20:01:50.260Z,0
2017-05-16T20:02:30.737Z,0
2017-05-16T20:03:11.170Z,0
2017-05-16T20:03:51.639Z,0
2017-05-16T20:04:32.085Z,0
2017-05-16T20:05:12.488Z,0
2017-05-16T20:05:52.951Z,0
2017-05-16T20:06:33.453Z,0
2017-05-16T20:07:13.914Z,0
2017-05-16T20:07:54.365Z,0
2017-05-16T20:08:34.832Z,0
2017-05-16T20:09:15.280Z,0
2017-05-16T20:09:55.779Z,0
2017-05-16T20:10:36.214Z,0
2017-05-16T20:11:16.669Z,0
2017-05-16T20:11:57.119Z,0
2017-05-16T20:12:37.623Z,0
2017-05-16T20:13:18.082Z,0
2017-05-16T20:13:58.577Z,0
2017-05-16T20:14:39.010Z,0
2017-05-16T20:15:19.600Z,0
2017-05-16T20:16:00.007Z,0
2017-05-16T20:16:40.486Z,0
2017-05-16T20:17:20.936Z,0
2017-05-16T20:18:01.400Z,0
2017-05-16T20:18:41.867Z,0
2017-05-16T20:19:22.303Z,0
2017-05-16T20:20:02.758Z,0
2017-05-16T20:20:43.231Z,0
2017-05-16T20:21:23.717Z,0
2017-05-16T20:22:04.217Z,0
2017-05-16T20:22:44.697Z,0
2017-05-16T20:25:12.729Z,0
2017-05-16T20:25:53.853Z,0
2017-05-16T20:26:34.333Z,0
2017-05-16T20:27:14.819Z,0
2017-05-16T20:27:55.316Z,0
2017-05-16T20:30:28.391Z,0
2017-05-16T20:31:08.866Z,0
2017-05-16T20:31:49.346Z,0
2017-05-16T20:32:29.882Z,0
2017-05-16T20:33:10.345Z,0
2017-05-16T20:33:50.802Z,0
2017-05-16T20:36:03.564Z,0
2017-05-16T20:36:44.446Z,0
2017-05-16T20:37:25.523Z,0
2017-05-16T20:38:06.149Z,0
2017-05-16T20:38:46.652Z,0
2017-05-16T20:40:59.352Z,0
2017-05-16T20:41:39.886Z,0
2017-05-16T20:42:20.323Z,0
2017-05-16T20:43:00.825Z,0
2017-05-16T20:43:41.303Z,0
2017-05-16T20:44:21.771Z,0
2017-05-16T20:45:02.280Z,0
2017-05-16T20:45:42.836Z,0